sensor_id;sensor_type;location;lat;lon;timestamp;temperature;humidity
3408;DHT22;1717;50.240;8.406;2023-07-13T00:00:41;21.10;54.10
3408;DHT22;1717;50.240;8.406;2023-07-13T00:03:08;21.00;54.20
3408;DHT22;1717;50.240;8.406;2023-07-13T00:05:39;21.00;54.30
3408;DHT22;1717;50.240;8.406;2023-07-13T00:08:08;20.90;54.50
3408;DHT22;1717;50.240;8.406;2023-07-13T00:10:39;20.90;54.70
3408;DHT22;1717;50.240;8.406;2023-07-13T00:13:06;20.80;54.70
3408;DHT22;1717;50.240;8.406;2023-07-13T00:15:33;20.80;54.80
3408;DHT22;1717;50.240;8.406;2023-07-13T00:18:01;20.70;54.90
3408;DHT22;1717;50.240;8.406;2023-07-13T00:20:28;20.70;55.00
3408;DHT22;1717;50.240;8.406;2023-07-13T00:22:55;20.70;55.10
3408;DHT22;1717;50.240;8.406;2023-07-13T00:25:23;20.60;55.20
3408;DHT22;1717;50.240;8.406;2023-07-13T00:27:53;20.60;55.30
3408;DHT22;1717;50.240;8.406;2023-07-13T00:30:20;20.60;55.50
3408;DHT22;1717;50.240;8.406;2023-07-13T00:32:47;20.60;55.60
3408;DHT22;1717;50.240;8.406;2023-07-13T00:35:15;20.50;55.70
3408;DHT22;1717;50.240;8.406;2023-07-13T00:37:42;20.50;55.70
3408;DHT22;1717;50.240;8.406;2023-07-13T00:40:11;20.50;55.80
3408;DHT22;1717;50.240;8.406;2023-07-13T00:42:40;20.50;55.70
3408;DHT22;1717;50.240;8.406;2023-07-13T00:48:15;20.40;56.00
3408;DHT22;1717;50.240;8.406;2023-07-13T00:50:44;20.40;56.10
3408;DHT22;1717;50.240;8.406;2023-07-13T00:53:13;20.40;56.10
3408;DHT22;1717;50.240;8.406;2023-07-13T00:55:40;20.50;56.70
3408;DHT22;1717;50.240;8.406;2023-07-13T00:58:09;20.50;55.90
3408;DHT22;1717;50.240;8.406;2023-07-13T01:00:38;20.50;55.90
3408;DHT22;1717;50.240;8.406;2023-07-13T01:03:05;20.60;55.80
3408;DHT22;1717;50.240;8.406;2023-07-13T01:05:34;20.70;55.70
3408;DHT22;1717;50.240;8.406;2023-07-13T01:08:03;20.70;55.60
3408;DHT22;1717;50.240;8.406;2023-07-13T01:10:31;20.80;55.50
3408;DHT22;1717;50.240;8.406;2023-07-13T01:13:04;20.80;55.30
3408;DHT22;1717;50.240;8.406;2023-07-13T01:15:37;20.80;55.30
3408;DHT22;1717;50.240;8.406;2023-07-13T01:18:05;20.80;55.20
3408;DHT22;1717;50.240;8.406;2023-07-13T01:20:33;20.80;55.10
3408;DHT22;1717;50.240;8.406;2023-07-13T01:23:05;20.90;55.20
3408;DHT22;1717;50.240;8.406;2023-07-13T01:25:34;20.90;55.10
3408;DHT22;1717;50.240;8.406;2023-07-13T01:28:00;20.90;55.00
3408;DHT22;1717;50.240;8.406;2023-07-13T01:30:28;20.80;55.10
3408;DHT22;1717;50.240;8.406;2023-07-13T01:32:56;20.80;55.10
3408;DHT22;1717;50.240;8.406;2023-07-13T01:35:23;20.80;55.80
3408;DHT22;1717;50.240;8.406;2023-07-13T01:37:50;20.80;55.30
3408;DHT22;1717;50.240;8.406;2023-07-13T01:40:19;20.70;55.30
3408;DHT22;1717;50.240;8.406;2023-07-13T01:42:46;20.70;55.30
3408;DHT22;1717;50.240;8.406;2023-07-13T01:45:13;20.70;55.30
3408;DHT22;1717;50.240;8.406;2023-07-13T01:47:40;20.70;55.30
3408;DHT22;1717;50.240;8.406;2023-07-13T01:50:08;20.70;55.30
3408;DHT22;1717;50.240;8.406;2023-07-13T01:52:35;20.60;55.30
3408;DHT22;1717;50.240;8.406;2023-07-13T01:55:02;20.70;55.60
3408;DHT22;1717;50.240;8.406;2023-07-13T01:57:30;20.50;55.50
3408;DHT22;1717;50.240;8.406;2023-07-13T01:59:57;20.40;55.50
3408;DHT22;1717;50.240;8.406;2023-07-13T02:02:24;20.40;55.70
3408;DHT22;1717;50.240;8.406;2023-07-13T02:04:51;20.40;55.80
3408;DHT22;1717;50.240;8.406;2023-07-13T02:07:18;20.40;55.80
3408;DHT22;1717;50.240;8.406;2023-07-13T02:09:45;20.30;55.90
3408;DHT22;1717;50.240;8.406;2023-07-13T02:12:12;20.50;56.70
3408;DHT22;1717;50.240;8.406;2023-07-13T02:14:40;20.30;56.60
3408;DHT22;1717;50.240;8.406;2023-07-13T02:17:07;20.30;56.10
3408;DHT22;1717;50.240;8.406;2023-07-13T02:19:34;20.20;56.20
3408;DHT22;1717;50.240;8.406;2023-07-13T02:22:00;20.30;56.40
3408;DHT22;1717;50.240;8.406;2023-07-13T02:24:27;20.10;56.50
3408;DHT22;1717;50.240;8.406;2023-07-13T02:26:54;20.00;56.50
3408;DHT22;1717;50.240;8.406;2023-07-13T02:29:21;20.00;56.70
3408;DHT22;1717;50.240;8.406;2023-07-13T02:31:50;19.90;56.80
3408;DHT22;1717;50.240;8.406;2023-07-13T02:34:16;19.90;56.80
3408;DHT22;1717;50.240;8.406;2023-07-13T02:36:43;19.90;56.80
3408;DHT22;1717;50.240;8.406;2023-07-13T02:39:12;19.90;57.50
3408;DHT22;1717;50.240;8.406;2023-07-13T02:41:38;19.80;57.00
3408;DHT22;1717;50.240;8.406;2023-07-13T02:44:05;19.80;57.00
3408;DHT22;1717;50.240;8.406;2023-07-13T02:46:35;19.80;57.00
3408;DHT22;1717;50.240;8.406;2023-07-13T02:49:04;19.80;56.90
3408;DHT22;1717;50.240;8.406;2023-07-13T02:51:31;19.80;57.00
3408;DHT22;1717;50.240;8.406;2023-07-13T02:53:59;19.70;57.50
3408;DHT22;1717;50.240;8.406;2023-07-13T02:56:28;19.70;57.10
3408;DHT22;1717;50.240;8.406;2023-07-13T02:58:56;19.70;57.10
3408;DHT22;1717;50.240;8.406;2023-07-13T03:01:23;19.70;57.00
3408;DHT22;1717;50.240;8.406;2023-07-13T03:03:51;19.70;57.00
3408;DHT22;1717;50.240;8.406;2023-07-13T03:06:19;19.70;57.00
3408;DHT22;1717;50.240;8.406;2023-07-13T03:08:47;19.60;57.10
3408;DHT22;1717;50.240;8.406;2023-07-13T03:11:16;19.60;57.20
3408;DHT22;1717;50.240;8.406;2023-07-13T03:13:43;19.60;57.20
3408;DHT22;1717;50.240;8.406;2023-07-13T03:16:11;19.50;57.30
3408;DHT22;1717;50.240;8.406;2023-07-13T03:18:38;19.50;57.30
3408;DHT22;1717;50.240;8.406;2023-07-13T03:21:05;19.40;57.30
3408;DHT22;1717;50.240;8.406;2023-07-13T03:23:33;19.50;57.50
3408;DHT22;1717;50.240;8.406;2023-07-13T03:26:04;19.40;57.60
3408;DHT22;1717;50.240;8.406;2023-07-13T03:28:32;19.40;57.60
3408;DHT22;1717;50.240;8.406;2023-07-13T03:31:00;19.30;57.60
3408;DHT22;1717;50.240;8.406;2023-07-13T03:33:27;19.30;57.60
3408;DHT22;1717;50.240;8.406;2023-07-13T03:35:54;19.30;57.60
3408;DHT22;1717;50.240;8.406;2023-07-13T03:38:21;19.30;57.70
3408;DHT22;1717;50.240;8.406;2023-07-13T03:40:49;19.30;57.70
3408;DHT22;1717;50.240;8.406;2023-07-13T03:43:16;19.30;57.90
3408;DHT22;1717;50.240;8.406;2023-07-13T03:45:43;19.30;57.90
3408;DHT22;1717;50.240;8.406;2023-07-13T03:48:10;19.20;58.10
3408;DHT22;1717;50.240;8.406;2023-07-13T03:50:36;19.20;58.10
3408;DHT22;1717;50.240;8.406;2023-07-13T03:53:04;19.30;58.10
3408;DHT22;1717;50.240;8.406;2023-07-13T03:55:31;19.20;58.10
3408;DHT22;1717;50.240;8.406;2023-07-13T03:58:01;19.20;58.00
3408;DHT22;1717;50.240;8.406;2023-07-13T04:00:48;19.10;58.10
3408;DHT22;1717;50.240;8.406;2023-07-13T04:03:15;19.10;58.30
3408;DHT22;1717;50.240;8.406;2023-07-13T04:05:42;19.00;58.40
3408;DHT22;1717;50.240;8.406;2023-07-13T04:08:09;19.00;58.80
3408;DHT22;1717;50.240;8.406;2023-07-13T04:10:36;19.00;58.70
3408;DHT22;1717;50.240;8.406;2023-07-13T04:13:04;19.00;58.80
3408;DHT22;1717;50.240;8.406;2023-07-13T04:15:32;19.00;58.70
3408;DHT22;1717;50.240;8.406;2023-07-13T04:18:00;19.00;58.80
3408;DHT22;1717;50.240;8.406;2023-07-13T04:20:28;19.00;58.60
3408;DHT22;1717;50.240;8.406;2023-07-13T04:22:55;19.00;58.70
3408;DHT22;1717;50.240;8.406;2023-07-13T04:25:23;19.00;58.70
3408;DHT22;1717;50.240;8.406;2023-07-13T04:27:50;19.00;58.70
3408;DHT22;1717;50.240;8.406;2023-07-13T04:30:17;19.00;58.60
3408;DHT22;1717;50.240;8.406;2023-07-13T04:32:44;19.00;58.70
3408;DHT22;1717;50.240;8.406;2023-07-13T04:35:12;19.00;58.60
3408;DHT22;1717;50.240;8.406;2023-07-13T04:37:39;19.00;58.60
3408;DHT22;1717;50.240;8.406;2023-07-13T04:40:07;19.00;58.60
3408;DHT22;1717;50.240;8.406;2023-07-13T04:42:37;19.00;58.70
3408;DHT22;1717;50.240;8.406;2023-07-13T04:45:05;19.00;58.60
3408;DHT22;1717;50.240;8.406;2023-07-13T04:47:32;19.00;58.60
3408;DHT22;1717;50.240;8.406;2023-07-13T04:49:59;18.90;58.90
3408;DHT22;1717;50.240;8.406;2023-07-13T04:52:27;18.90;58.90
3408;DHT22;1717;50.240;8.406;2023-07-13T04:54:54;18.90;58.90
3408;DHT22;1717;50.240;8.406;2023-07-13T04:57:21;19.00;58.80
3408;DHT22;1717;50.240;8.406;2023-07-13T04:59:48;18.90;58.60
3408;DHT22;1717;50.240;8.406;2023-07-13T05:02:14;19.00;58.70
3408;DHT22;1717;50.240;8.406;2023-07-13T05:04:41;19.00;58.50
3408;DHT22;1717;50.240;8.406;2023-07-13T05:07:09;19.10;58.50
3408;DHT22;1717;50.240;8.406;2023-07-13T05:09:37;19.10;58.50
3408;DHT22;1717;50.240;8.406;2023-07-13T05:12:06;19.10;58.30
3408;DHT22;1717;50.240;8.406;2023-07-13T05:14:34;19.10;58.20
3408;DHT22;1717;50.240;8.406;2023-07-13T05:17:01;19.10;58.30
3408;DHT22;1717;50.240;8.406;2023-07-13T05:19:27;19.10;58.30
3408;DHT22;1717;50.240;8.406;2023-07-13T05:21:54;19.10;58.30
3408;DHT22;1717;50.240;8.406;2023-07-13T05:24:21;19.10;58.20
3408;DHT22;1717;50.240;8.406;2023-07-13T05:26:49;18.90;58.20
3408;DHT22;1717;50.240;8.406;2023-07-13T05:29:16;18.90;58.40
3408;DHT22;1717;50.240;8.406;2023-07-13T05:31:43;18.90;58.50
3408;DHT22;1717;50.240;8.406;2023-07-13T05:34:10;18.90;58.40
3408;DHT22;1717;50.240;8.406;2023-07-13T05:36:37;18.70;58.60
3408;DHT22;1717;50.240;8.406;2023-07-13T05:39:04;18.60;58.90
3408;DHT22;1717;50.240;8.406;2023-07-13T05:41:31;18.60;58.90
3408;DHT22;1717;50.240;8.406;2023-07-13T05:43:59;18.60;59.00
3408;DHT22;1717;50.240;8.406;2023-07-13T05:46:26;18.60;59.00
3408;DHT22;1717;50.240;8.406;2023-07-13T05:48:53;18.60;59.00
3408;DHT22;1717;50.240;8.406;2023-07-13T05:51:20;18.50;59.10
3408;DHT22;1717;50.240;8.406;2023-07-13T05:53:46;18.70;59.50
3408;DHT22;1717;50.240;8.406;2023-07-13T05:56:13;18.60;59.30
3408;DHT22;1717;50.240;8.406;2023-07-13T05:58:40;18.70;59.40
3408;DHT22;1717;50.240;8.406;2023-07-13T06:01:11;18.70;59.50
3408;DHT22;1717;50.240;8.406;2023-07-13T06:03:38;18.70;59.30
3408;DHT22;1717;50.240;8.406;2023-07-13T06:06:05;18.70;59.50
3408;DHT22;1717;50.240;8.406;2023-07-13T06:08:32;18.80;59.60
3408;DHT22;1717;50.240;8.406;2023-07-13T06:11:04;18.90;59.70
3408;DHT22;1717;50.240;8.406;2023-07-13T06:13:31;19.00;59.70
3408;DHT22;1717;50.240;8.406;2023-07-13T06:15:58;19.10;59.50
3408;DHT22;1717;50.240;8.406;2023-07-13T06:18:27;19.20;59.40
3408;DHT22;1717;50.240;8.406;2023-07-13T06:20:53;19.30;59.40
3408;DHT22;1717;50.240;8.406;2023-07-13T06:23:20;19.40;59.30
3408;DHT22;1717;50.240;8.406;2023-07-13T06:25:47;19.50;59.10
3408;DHT22;1717;50.240;8.406;2023-07-13T06:28:14;19.60;58.90
3408;DHT22;1717;50.240;8.406;2023-07-13T06:30:41;19.70;58.50
3408;DHT22;1717;50.240;8.406;2023-07-13T06:33:07;19.80;58.20
3408;DHT22;1717;50.240;8.406;2023-07-13T06:35:36;20.00;58.00
3408;DHT22;1717;50.240;8.406;2023-07-13T06:38:02;20.10;57.70
3408;DHT22;1717;50.240;8.406;2023-07-13T06:40:30;20.20;57.40
3408;DHT22;1717;50.240;8.406;2023-07-13T06:42:57;20.30;57.10
3408;DHT22;1717;50.240;8.406;2023-07-13T06:45:24;20.40;56.80
3408;DHT22;1717;50.240;8.406;2023-07-13T06:47:51;20.60;56.60
3408;DHT22;1717;50.240;8.406;2023-07-13T06:50:17;20.70;56.30
3408;DHT22;1717;50.240;8.406;2023-07-13T06:52:46;20.80;56.00
3408;DHT22;1717;50.240;8.406;2023-07-13T06:55:13;20.90;55.80
3408;DHT22;1717;50.240;8.406;2023-07-13T06:57:39;21.00;55.60
3408;DHT22;1717;50.240;8.406;2023-07-13T07:00:07;21.10;55.10
3408;DHT22;1717;50.240;8.406;2023-07-13T07:02:35;21.20;54.70
3408;DHT22;1717;50.240;8.406;2023-07-13T07:05:02;21.30;54.30
3408;DHT22;1717;50.240;8.406;2023-07-13T07:07:29;21.30;54.20
3408;DHT22;1717;50.240;8.406;2023-07-13T07:09:57;21.50;54.10
3408;DHT22;1717;50.240;8.406;2023-07-13T07:12:24;21.50;53.70
3408;DHT22;1717;50.240;8.406;2023-07-13T07:14:50;21.60;53.50
3408;DHT22;1717;50.240;8.406;2023-07-13T07:17:17;21.70;53.30
3408;DHT22;1717;50.240;8.406;2023-07-13T07:19:44;21.80;53.00
3408;DHT22;1717;50.240;8.406;2023-07-13T07:22:11;21.90;52.70
3408;DHT22;1717;50.240;8.406;2023-07-13T07:24:38;22.00;52.30
3408;DHT22;1717;50.240;8.406;2023-07-13T07:27:06;22.10;52.30
3408;DHT22;1717;50.240;8.406;2023-07-13T07:29:33;22.20;51.90
3408;DHT22;1717;50.240;8.406;2023-07-13T07:32:00;22.30;51.80
3408;DHT22;1717;50.240;8.406;2023-07-13T07:34:27;22.40;51.60
3408;DHT22;1717;50.240;8.406;2023-07-13T07:36:54;22.50;51.30
3408;DHT22;1717;50.240;8.406;2023-07-13T07:39:21;22.60;50.80
3408;DHT22;1717;50.240;8.406;2023-07-13T07:41:48;22.60;50.50
3408;DHT22;1717;50.240;8.406;2023-07-13T07:44:16;22.70;50.10
3408;DHT22;1717;50.240;8.406;2023-07-13T07:46:43;22.80;50.10
3408;DHT22;1717;50.240;8.406;2023-07-13T07:49:10;22.90;49.90
3408;DHT22;1717;50.240;8.406;2023-07-13T07:51:37;23.00;49.90
3408;DHT22;1717;50.240;8.406;2023-07-13T07:54:04;23.10;49.80
3408;DHT22;1717;50.240;8.406;2023-07-13T07:56:32;23.10;49.70
3408;DHT22;1717;50.240;8.406;2023-07-13T07:58:59;23.20;49.50
3408;DHT22;1717;50.240;8.406;2023-07-13T08:01:27;23.30;49.40
3408;DHT22;1717;50.240;8.406;2023-07-13T08:03:54;23.50;49.10
3408;DHT22;1717;50.240;8.406;2023-07-13T08:06:20;23.50;48.80
3408;DHT22;1717;50.240;8.406;2023-07-13T08:08:48;23.60;48.60
3408;DHT22;1717;50.240;8.406;2023-07-13T08:11:16;23.70;48.50
3408;DHT22;1717;50.240;8.406;2023-07-13T08:13:43;23.80;48.30
3408;DHT22;1717;50.240;8.406;2023-07-13T08:16:10;23.90;48.00
3408;DHT22;1717;50.240;8.406;2023-07-13T08:18:38;23.90;47.70
3408;DHT22;1717;50.240;8.406;2023-07-13T08:21:06;23.90;47.40
3408;DHT22;1717;50.240;8.406;2023-07-13T08:23:33;24.00;47.20
3408;DHT22;1717;50.240;8.406;2023-07-13T08:26:00;24.00;47.30
3408;DHT22;1717;50.240;8.406;2023-07-13T08:28:29;24.00;47.00
3408;DHT22;1717;50.240;8.406;2023-07-13T08:31:00;24.10;47.00
3408;DHT22;1717;50.240;8.406;2023-07-13T08:33:27;24.10;47.00
3408;DHT22;1717;50.240;8.406;2023-07-13T08:35:55;24.10;46.80
3408;DHT22;1717;50.240;8.406;2023-07-13T08:38:22;24.10;46.80
3408;DHT22;1717;50.240;8.406;2023-07-13T08:40:52;24.10;46.90
3408;DHT22;1717;50.240;8.406;2023-07-13T08:43:25;24.20;46.90
3408;DHT22;1717;50.240;8.406;2023-07-13T08:45:55;24.20;46.80
3408;DHT22;1717;50.240;8.406;2023-07-13T08:48:26;24.30;47.30
3408;DHT22;1717;50.240;8.406;2023-07-13T08:50:58;24.30;46.60
3408;DHT22;1717;50.240;8.406;2023-07-13T08:53:34;24.30;46.40
3408;DHT22;1717;50.240;8.406;2023-07-13T08:56:04;24.30;45.80
3408;DHT22;1717;50.240;8.406;2023-07-13T08:58:33;24.40;45.80
3408;DHT22;1717;50.240;8.406;2023-07-13T09:01:06;24.40;45.30
3408;DHT22;1717;50.240;8.406;2023-07-13T09:03:44;24.50;45.10
3408;DHT22;1717;50.240;8.406;2023-07-13T09:06:15;24.60;45.00
3408;DHT22;1717;50.240;8.406;2023-07-13T09:08:51;24.60;44.90
3408;DHT22;1717;50.240;8.406;2023-07-13T09:11:32;24.60;44.10
3408;DHT22;1717;50.240;8.406;2023-07-13T09:14:13;24.70;43.80
3408;DHT22;1717;50.240;8.406;2023-07-13T09:16:46;24.70;43.50
3408;DHT22;1717;50.240;8.406;2023-07-13T09:19:20;24.70;43.20
3408;DHT22;1717;50.240;8.406;2023-07-13T09:21:51;24.80;43.30
3408;DHT22;1717;50.240;8.406;2023-07-13T09:24:29;24.90;43.20
3408;DHT22;1717;50.240;8.406;2023-07-13T09:26:58;24.80;43.10
3408;DHT22;1717;50.240;8.406;2023-07-13T09:29:29;24.90;42.90
3408;DHT22;1717;50.240;8.406;2023-07-13T09:32:02;24.90;42.80
3408;DHT22;1717;50.240;8.406;2023-07-13T09:34:30;24.90;42.90
3408;DHT22;1717;50.240;8.406;2023-07-13T09:37:00;24.90;42.80
3408;DHT22;1717;50.240;8.406;2023-07-13T09:39:30;25.00;42.80
3408;DHT22;1717;50.240;8.406;2023-07-13T09:42:01;25.10;42.70
3408;DHT22;1717;50.240;8.406;2023-07-13T09:44:32;25.10;42.50
3408;DHT22;1717;50.240;8.406;2023-07-13T09:47:01;25.10;42.40
3408;DHT22;1717;50.240;8.406;2023-07-13T09:49:31;25.30;42.50
3408;DHT22;1717;50.240;8.406;2023-07-13T09:52:02;25.20;42.40
3408;DHT22;1717;50.240;8.406;2023-07-13T09:54:33;25.30;42.30
3408;DHT22;1717;50.240;8.406;2023-07-13T09:57:02;25.40;42.10
3408;DHT22;1717;50.240;8.406;2023-07-13T09:59:31;25.40;42.00
3408;DHT22;1717;50.240;8.406;2023-07-13T10:01:58;25.40;41.90
3408;DHT22;1717;50.240;8.406;2023-07-13T10:04:30;25.40;42.00
3408;DHT22;1717;50.240;8.406;2023-07-13T10:07:07;25.40;42.00
3408;DHT22;1717;50.240;8.406;2023-07-13T10:09:34;25.40;42.00
3408;DHT22;1717;50.240;8.406;2023-07-13T10:12:01;25.50;42.10
3408;DHT22;1717;50.240;8.406;2023-07-13T10:14:29;25.50;42.10
3408;DHT22;1717;50.240;8.406;2023-07-13T10:16:58;25.60;42.00
3408;DHT22;1717;50.240;8.406;2023-07-13T10:19:31;25.70;42.10
3408;DHT22;1717;50.240;8.406;2023-07-13T10:22:00;25.80;42.00
3408;DHT22;1717;50.240;8.406;2023-07-13T10:24:32;25.90;41.80
3408;DHT22;1717;50.240;8.406;2023-07-13T10:27:02;25.80;42.10
3408;DHT22;1717;50.240;8.406;2023-07-13T10:29:36;25.90;41.30
3408;DHT22;1717;50.240;8.406;2023-07-13T10:32:09;25.80;41.40
3408;DHT22;1717;50.240;8.406;2023-07-13T10:34:36;25.80;41.40
3408;DHT22;1717;50.240;8.406;2023-07-13T10:37:05;25.70;40.50
3408;DHT22;1717;50.240;8.406;2023-07-13T10:39:36;25.80;40.40
3408;DHT22;1717;50.240;8.406;2023-07-13T10:42:06;25.80;40.20
3408;DHT22;1717;50.240;8.406;2023-07-13T10:44:37;25.80;40.20
3408;DHT22;1717;50.240;8.406;2023-07-13T10:47:08;25.80;40.30
3408;DHT22;1717;50.240;8.406;2023-07-13T10:49:39;25.90;40.40
3408;DHT22;1717;50.240;8.406;2023-07-13T10:52:43;26.00;40.10
3408;DHT22;1717;50.240;8.406;2023-07-13T10:55:33;26.10;39.40
3408;DHT22;1717;50.240;8.406;2023-07-13T10:58:02;26.10;39.20
3408;DHT22;1717;50.240;8.406;2023-07-13T11:00:43;26.30;39.20
3408;DHT22;1717;50.240;8.406;2023-07-13T11:03:15;26.30;39.00
3408;DHT22;1717;50.240;8.406;2023-07-13T11:05:43;26.40;38.70
3408;DHT22;1717;50.240;8.406;2023-07-13T11:08:19;26.50;38.70
3408;DHT22;1717;50.240;8.406;2023-07-13T11:10:53;26.50;38.60
3408;DHT22;1717;50.240;8.406;2023-07-13T11:13:55;26.70;38.60
3408;DHT22;1717;50.240;8.406;2023-07-13T11:16:44;26.80;38.40
3408;DHT22;1717;50.240;8.406;2023-07-13T11:19:28;26.90;38.30
3408;DHT22;1717;50.240;8.406;2023-07-13T11:22:14;26.90;38.10
3408;DHT22;1717;50.240;8.406;2023-07-13T11:25:20;27.00;37.90
3408;DHT22;1717;50.240;8.406;2023-07-13T11:27:51;27.10;38.00
3408;DHT22;1717;50.240;8.406;2023-07-13T11:30:25;27.20;38.00
3408;DHT22;1717;50.240;8.406;2023-07-13T11:33:03;27.30;38.00
3408;DHT22;1717;50.240;8.406;2023-07-13T11:35:35;27.40;37.80
3408;DHT22;1717;50.240;8.406;2023-07-13T11:38:13;27.40;37.70
3408;DHT22;1717;50.240;8.406;2023-07-13T11:40:42;27.60;37.70
3408;DHT22;1717;50.240;8.406;2023-07-13T11:43:13;27.60;37.60
3408;DHT22;1717;50.240;8.406;2023-07-13T11:45:40;27.60;37.50
3408;DHT22;1717;50.240;8.406;2023-07-13T11:48:21;27.70;37.40
3408;DHT22;1717;50.240;8.406;2023-07-13T11:50:56;27.60;37.30
3408;DHT22;1717;50.240;8.406;2023-07-13T11:53:26;27.70;37.30
3408;DHT22;1717;50.240;8.406;2023-07-13T11:55:54;27.60;37.10
3408;DHT22;1717;50.240;8.406;2023-07-13T11:58:24;27.60;37.20
3408;DHT22;1717;50.240;8.406;2023-07-13T12:00:55;27.60;37.30
3408;DHT22;1717;50.240;8.406;2023-07-13T12:03:25;27.50;37.30
3408;DHT22;1717;50.240;8.406;2023-07-13T12:05:59;27.50;37.50
3408;DHT22;1717;50.240;8.406;2023-07-13T12:08:27;27.50;37.50
3408;DHT22;1717;50.240;8.406;2023-07-13T12:11:00;27.60;37.30
3408;DHT22;1717;50.240;8.406;2023-07-13T12:13:36;27.60;37.30
3408;DHT22;1717;50.240;8.406;2023-07-13T12:16:12;27.60;37.10
3408;DHT22;1717;50.240;8.406;2023-07-13T12:18:39;27.60;36.80
3408;DHT22;1717;50.240;8.406;2023-07-13T12:21:13;27.60;36.80
3408;DHT22;1717;50.240;8.406;2023-07-13T12:23:43;27.60;36.90
3408;DHT22;1717;50.240;8.406;2023-07-13T12:26:11;27.50;37.00
3408;DHT22;1717;50.240;8.406;2023-07-13T12:28:48;27.50;37.70
3408;DHT22;1717;50.240;8.406;2023-07-13T12:31:29;27.40;37.90
3408;DHT22;1717;50.240;8.406;2023-07-13T12:33:58;27.40;37.50
3408;DHT22;1717;50.240;8.406;2023-07-13T12:36:25;27.40;37.60
3408;DHT22;1717;50.240;8.406;2023-07-13T12:38:54;27.30;37.80
3408;DHT22;1717;50.240;8.406;2023-07-13T12:41:22;27.30;38.00
3408;DHT22;1717;50.240;8.406;2023-07-13T12:43:52;27.30;38.10
3408;DHT22;1717;50.240;8.406;2023-07-13T12:46:21;27.40;38.20
3408;DHT22;1717;50.240;8.406;2023-07-13T12:48:52;27.40;38.80
3408;DHT22;1717;50.240;8.406;2023-07-13T12:51:22;27.30;38.50
3408;DHT22;1717;50.240;8.406;2023-07-13T12:53:57;27.30;38.60
3408;DHT22;1717;50.240;8.406;2023-07-13T12:56:26;27.30;38.80
3408;DHT22;1717;50.240;8.406;2023-07-13T12:58:57;27.20;38.80
3408;DHT22;1717;50.240;8.406;2023-07-13T13:01:27;27.20;38.90
3408;DHT22;1717;50.240;8.406;2023-07-13T13:03:55;27.20;38.90
3408;DHT22;1717;50.240;8.406;2023-07-13T13:06:25;27.10;39.10
3408;DHT22;1717;50.240;8.406;2023-07-13T13:08:54;27.10;39.30
3408;DHT22;1717;50.240;8.406;2023-07-13T13:11:23;27.10;39.50
3408;DHT22;1717;50.240;8.406;2023-07-13T13:13:52;27.00;39.50
3408;DHT22;1717;50.240;8.406;2023-07-13T13:16:23;27.00;39.50
3408;DHT22;1717;50.240;8.406;2023-07-13T13:18:52;27.00;39.60
3408;DHT22;1717;50.240;8.406;2023-07-13T13:21:20;27.10;39.50
3408;DHT22;1717;50.240;8.406;2023-07-13T13:23:47;27.10;40.10
3408;DHT22;1717;50.240;8.406;2023-07-13T13:26:15;27.10;39.50
3408;DHT22;1717;50.240;8.406;2023-07-13T13:28:43;27.00;39.40
3408;DHT22;1717;50.240;8.406;2023-07-13T13:31:11;27.00;39.60
3408;DHT22;1717;50.240;8.406;2023-07-13T13:33:41;27.00;39.70
3408;DHT22;1717;50.240;8.406;2023-07-13T13:36:14;27.00;39.70
3408;DHT22;1717;50.240;8.406;2023-07-13T13:38:43;27.00;39.70
3408;DHT22;1717;50.240;8.406;2023-07-13T13:41:11;27.00;39.80
3408;DHT22;1717;50.240;8.406;2023-07-13T13:43:39;27.00;39.90
3408;DHT22;1717;50.240;8.406;2023-07-13T13:46:14;26.90;39.90
3408;DHT22;1717;50.240;8.406;2023-07-13T13:48:43;26.80;39.90
3408;DHT22;1717;50.240;8.406;2023-07-13T13:51:15;26.80;40.00
3408;DHT22;1717;50.240;8.406;2023-07-13T13:53:42;26.80;40.20
3408;DHT22;1717;50.240;8.406;2023-07-13T13:56:09;26.80;40.30
3408;DHT22;1717;50.240;8.406;2023-07-13T13:58:36;26.70;40.20
3408;DHT22;1717;50.240;8.406;2023-07-13T14:01:03;26.70;40.20
3408;DHT22;1717;50.240;8.406;2023-07-13T14:03:34;26.70;40.10
3408;DHT22;1717;50.240;8.406;2023-07-13T14:06:02;26.70;40.00
3408;DHT22;1717;50.240;8.406;2023-07-13T14:08:32;26.60;39.90
3408;DHT22;1717;50.240;8.406;2023-07-13T14:11:01;26.60;40.00
3408;DHT22;1717;50.240;8.406;2023-07-13T14:13:32;26.70;40.00
3408;DHT22;1717;50.240;8.406;2023-07-13T14:16:01;26.70;40.00
3408;DHT22;1717;50.240;8.406;2023-07-13T14:18:28;26.70;40.00
3408;DHT22;1717;50.240;8.406;2023-07-13T14:20:55;26.70;40.00
3408;DHT22;1717;50.240;8.406;2023-07-13T14:23:24;26.60;39.70
3408;DHT22;1717;50.240;8.406;2023-07-13T14:25:50;26.60;40.00
3408;DHT22;1717;50.240;8.406;2023-07-13T14:28:20;26.50;39.60
3408;DHT22;1717;50.240;8.406;2023-07-13T14:30:48;26.50;39.50
3408;DHT22;1717;50.240;8.406;2023-07-13T14:33:15;26.50;39.60
3408;DHT22;1717;50.240;8.406;2023-07-13T14:35:42;26.50;39.70
3408;DHT22;1717;50.240;8.406;2023-07-13T14:38:12;26.50;39.80
3408;DHT22;1717;50.240;8.406;2023-07-13T14:40:41;26.50;39.70
3408;DHT22;1717;50.240;8.406;2023-07-13T14:43:10;26.50;39.70
3408;DHT22;1717;50.240;8.406;2023-07-13T14:45:40;26.50;39.70
3408;DHT22;1717;50.240;8.406;2023-07-13T14:48:14;26.50;39.80
3408;DHT22;1717;50.240;8.406;2023-07-13T14:50:42;26.50;39.70
3408;DHT22;1717;50.240;8.406;2023-07-13T14:53:10;26.50;39.60
3408;DHT22;1717;50.240;8.406;2023-07-13T14:55:38;26.50;39.50
3408;DHT22;1717;50.240;8.406;2023-07-13T14:58:06;26.50;39.40
3408;DHT22;1717;50.240;8.406;2023-07-13T15:00:33;26.50;39.30
3408;DHT22;1717;50.240;8.406;2023-07-13T15:03:00;26.50;39.30
3408;DHT22;1717;50.240;8.406;2023-07-13T15:05:29;26.40;39.20
3408;DHT22;1717;50.240;8.406;2023-07-13T15:07:58;26.30;39.30
3408;DHT22;1717;50.240;8.406;2023-07-13T15:10:27;26.40;39.40
3408;DHT22;1717;50.240;8.406;2023-07-13T15:12:58;26.40;39.40
3408;DHT22;1717;50.240;8.406;2023-07-13T15:15:28;26.40;39.40
3408;DHT22;1717;50.240;8.406;2023-07-13T15:17:56;26.40;39.40
3408;DHT22;1717;50.240;8.406;2023-07-13T15:20:27;26.40;39.40
3408;DHT22;1717;50.240;8.406;2023-07-13T15:22:55;26.50;39.40
3408;DHT22;1717;50.240;8.406;2023-07-13T15:25:24;26.50;39.40
3408;DHT22;1717;50.240;8.406;2023-07-13T15:27:51;26.60;39.50
3408;DHT22;1717;50.240;8.406;2023-07-13T15:30:19;26.60;39.40
3408;DHT22;1717;50.240;8.406;2023-07-13T15:32:48;26.60;39.40
3408;DHT22;1717;50.240;8.406;2023-07-13T15:35:16;26.60;39.40
3408;DHT22;1717;50.240;8.406;2023-07-13T15:37:44;26.60;39.40
3408;DHT22;1717;50.240;8.406;2023-07-13T15:40:12;26.70;39.30
3408;DHT22;1717;50.240;8.406;2023-07-13T15:42:40;26.60;39.20
3408;DHT22;1717;50.240;8.406;2023-07-13T15:45:16;26.60;39.20
3408;DHT22;1717;50.240;8.406;2023-07-13T15:47:44;26.60;39.10
3408;DHT22;1717;50.240;8.406;2023-07-13T15:50:17;26.60;39.00
3408;DHT22;1717;50.240;8.406;2023-07-13T15:52:47;26.60;39.00
3408;DHT22;1717;50.240;8.406;2023-07-13T15:55:15;26.50;38.90
3408;DHT22;1717;50.240;8.406;2023-07-13T15:57:44;26.50;38.80
3408;DHT22;1717;50.240;8.406;2023-07-13T16:00:14;26.50;38.80
3408;DHT22;1717;50.240;8.406;2023-07-13T16:02:43;26.50;38.80
3408;DHT22;1717;50.240;8.406;2023-07-13T16:05:10;26.50;38.80
3408;DHT22;1717;50.240;8.406;2023-07-13T16:07:38;26.50;38.90
3408;DHT22;1717;50.240;8.406;2023-07-13T16:10:07;26.50;38.40
3408;DHT22;1717;50.240;8.406;2023-07-13T16:12:34;26.30;39.00
3408;DHT22;1717;50.240;8.406;2023-07-13T16:15:02;26.30;40.10
3408;DHT22;1717;50.240;8.406;2023-07-13T16:17:29;26.40;41.00